createdAt,value
2023-02-07T00:01:11.283Z,40.3
2023-02-07T00:03:14.903Z,41.2
2023-02-07T00:05:18.460Z,42.3
2023-02-07T00:07:24.701Z,43.9
2023-02-07T00:09:28.434Z,40.8
2023-02-07T00:11:31.877Z,40
2023-02-07T00:17:45.275Z,39.8
2023-02-07T00:19:57.623Z,38.3
2023-02-07T00:22:01.255Z,40.5
2023-02-07T00:24:04.806Z,41.5
2023-02-07T00:26:11.086Z,41.9
2023-02-07T00:28:14.768Z,42.8
2023-02-07T00:30:18.302Z,40.4
2023-02-07T00:32:24.482Z,43.3
2023-02-07T00:34:28.048Z,43.2
2023-02-07T00:42:45.037Z,42.3
2023-02-07T00:44:51.294Z,45.1
2023-02-07T00:46:54.858Z,42.9
2023-02-07T00:48:58.415Z,44.7
2023-02-07T00:51:04.660Z,41.8
2023-02-07T00:53:08.248Z,44.3
2023-02-07T00:55:11.810Z,42.9
2023-02-07T00:57:18.042Z,42.1
2023-02-07T00:59:21.639Z,43.3
2023-02-07T01:01:25.253Z,44.2
2023-02-07T01:03:31.442Z,41.5
2023-02-07T01:05:35.154Z,43.9
2023-02-07T01:07:38.578Z,47.7
2023-02-07T01:09:44.799Z,48.3
2023-02-07T01:24:15.210Z,51
2023-02-07T01:26:18.756Z,54.1
2023-02-07T01:28:24.989Z,52.1
2023-02-07T01:32:32.114Z,47.9
2023-02-07T01:34:38.343Z,47.8
2023-02-07T01:38:45.555Z,47.6
2023-02-07T01:40:51.777Z,46.3
2023-02-07T01:42:55.327Z,44.8
2023-02-07T01:44:58.907Z,46.8
2023-02-07T01:47:05.116Z,46.8
2023-02-07T01:49:08.706Z,46.7
2023-02-07T01:51:12.234Z,46.2
2023-02-07T01:55:22.012Z,47.5
2023-02-07T01:57:25.604Z,46.1
2023-02-07T01:59:38.104Z,42.8
2023-02-07T02:01:41.649Z,47.2
2023-02-07T02:03:45.168Z,46.1
2023-02-07T02:07:55.032Z,48
2023-02-07T02:09:58.591Z,46.7
2023-02-07T02:14:08.317Z,46.7
2023-02-07T02:18:18.189Z,44.1
2023-02-07T02:20:21.749Z,45.4
2023-02-07T02:32:48.351Z,43.9
2023-02-07T02:36:58.128Z,42.7
2023-02-07T02:39:01.648Z,45
2023-02-07T02:50:13.809Z,35
2023-02-07T02:52:17.340Z,38.9
2023-02-07T02:54:20.974Z,40.8
2023-02-07T02:56:27.180Z,38.5
2023-02-07T02:58:30.722Z,38.6
2023-02-07T03:00:34.297Z,38.7
2023-02-07T03:02:40.568Z,37.7
2023-02-07T03:04:44.160Z,37.8
2023-02-07T03:06:47.690Z,38.7
2023-02-07T03:08:53.876Z,38.5
2023-02-07T03:10:57.425Z,40.3
2023-02-07T03:13:01.056Z,38.1
2023-02-07T03:15:07.340Z,36
2023-02-07T03:17:11.006Z,37.5
2023-02-07T03:19:14.521Z,38
2023-02-07T03:21:20.735Z,37.5
2023-02-07T03:23:24.290Z,34.7
2023-02-07T03:25:27.919Z,36.9
2023-02-07T03:27:34.212Z,38
2023-02-07T03:29:37.711Z,35.7
2023-02-07T03:31:41.356Z,35.5
2023-02-07T03:33:47.463Z,35.2
2023-02-07T03:35:51.037Z,34.6
2023-02-07T03:37:54.640Z,36.1
2023-02-07T03:40:00.834Z,35
2023-02-07T03:42:04.488Z,34.3
2023-02-07T03:44:07.989Z,34.9
2023-02-07T03:46:14.296Z,35.1
2023-02-07T03:48:17.868Z,32.6
2023-02-07T03:50:21.374Z,32.3
2023-02-07T03:52:27.613Z,31.4
2023-02-07T03:54:31.219Z,31.9
2023-02-07T03:56:34.751Z,31.6
2023-02-07T03:58:40.953Z,32.5
2023-02-07T04:02:48.049Z,33.5
2023-02-07T04:06:57.838Z,32.9
2023-02-07T04:11:07.539Z,31.8
2023-02-07T04:13:11.112Z,31.8
2023-02-07T04:17:20.904Z,31.3
2023-02-07T04:19:24.458Z,32.5
2023-02-07T04:21:27.958Z,32.8
2023-02-07T04:23:34.173Z,31.5
2023-02-07T04:25:38.088Z,32.7
2023-02-07T04:27:41.340Z,33.2
2023-02-07T04:29:47.580Z,31.6
2023-02-07T04:31:51.197Z,30.7
2023-02-07T04:33:54.713Z,30.7
2023-02-07T04:36:00.908Z,34.3
2023-02-07T04:38:04.383Z,33.2
2023-02-07T04:40:07.921Z,29.3
2023-02-07T04:42:14.106Z,32.2
2023-02-07T04:44:17.654Z,31.3
2023-02-07T04:46:21.212Z,31.3
2023-02-07T04:50:30.991Z,29.3
2023-02-07T04:52:34.542Z,32.4
2023-02-07T04:57:44.037Z,30.4
2023-02-07T04:59:47.634Z,30
2023-02-07T05:01:51.250Z,31.3
2023-02-07T05:03:57.515Z,31
2023-02-07T05:06:01.053Z,29.3
2023-02-07T05:08:04.536Z,31.3
2023-02-07T05:17:13.124Z,28.3
2023-02-07T05:19:16.630Z,31.3
2023-02-07T05:21:20.145Z,29.4
2023-02-07T05:23:26.287Z,32.5
2023-02-07T05:25:29.799Z,32.2
2023-02-07T05:27:33.276Z,31.3
2023-02-07T05:29:39.513Z,32.5
2023-02-07T05:31:43.262Z,29.3
2023-02-07T05:33:46.599Z,29.9
2023-02-07T05:35:52.744Z,28.7
2023-02-07T05:37:56.298Z,30.5
2023-02-07T05:39:59.860Z,29.1
2023-02-07T05:42:06.081Z,30.8
2023-02-07T05:44:09.549Z,30.4
2023-02-07T05:48:19.225Z,30.5
2023-02-07T05:50:22.814Z,28.6
2023-02-07T05:54:32.654Z,30.7
2023-02-07T05:58:39.727Z,31.3
2023-02-07T06:02:49.794Z,28.5
2023-02-07T06:04:53.124Z,30.8
2023-02-07T06:06:59.317Z,30.1
2023-02-07T06:09:02.806Z,29.4
2023-02-07T06:11:06.294Z,30.3
2023-02-07T06:13:12.489Z,29.9
2023-02-07T06:15:15.923Z,30.3
2023-02-07T06:17:19.525Z,30.4
2023-02-07T06:19:25.755Z,29.6
2023-02-07T06:21:45.109Z,33.2
2023-02-07T06:23:32.855Z,31.5
2023-02-07T06:27:42.702Z,31.5
2023-02-07T06:37:05.667Z,32.3
2023-02-07T06:39:09.134Z,32.8
2023-02-07T06:43:18.857Z,30.8
2023-02-07T06:45:22.421Z,31.5
2023-02-07T06:47:28.691Z,32.1
2023-02-07T06:49:32.168Z,31.4
2023-02-07T06:51:35.651Z,31.9
2023-02-07T06:53:41.876Z,32
2023-02-07T06:55:45.462Z,32.2
2023-02-07T06:57:49.029Z,32.1
2023-02-07T06:59:55.303Z,33.5
2023-02-07T07:01:58.740Z,32.2
2023-02-07T07:04:02.194Z,34.7
2023-02-07T07:08:11.891Z,35.5
2023-02-07T07:10:15.450Z,37.3
2023-02-07T07:12:21.490Z,36.6
2023-02-07T07:14:25.200Z,36
2023-02-07T07:16:28.628Z,36.6
2023-02-07T07:18:34.862Z,38.1
2023-02-07T07:24:48.014Z,36
2023-02-07T07:26:51.603Z,39
2023-02-07T07:28:55.175Z,40
2023-02-07T07:31:01.536Z,38.4
2023-02-07T07:33:04.975Z,40.4
2023-02-07T07:35:08.563Z,37.6
2023-02-07T07:37:14.792Z,35.4
2023-02-07T07:39:18.362Z,38.1
2023-02-07T07:41:21.914Z,40
2023-02-07T07:43:28.141Z,38
2023-02-07T07:49:41.329Z,39.8
2023-02-07T07:51:44.919Z,40.1
2023-02-07T07:53:48.506Z,39.9
2023-02-07T07:57:58.345Z,38.7
2023-02-07T08:00:01.964Z,38.3
2023-02-07T08:02:08.078Z,37.8
2023-02-07T08:04:11.673Z,40.5
2023-02-07T08:06:15.182Z,37.8
2023-02-07T08:08:21.377Z,39.4
2023-02-07T08:10:24.905Z,38.5
2023-02-07T08:12:28.413Z,39.5
2023-02-07T08:14:34.662Z,40.2
2023-02-07T08:16:38.237Z,39.4
2023-02-07T08:18:41.806Z,39.7
2023-02-07T08:20:48.057Z,40.8
2023-02-07T08:22:51.591Z,39.9
2023-02-07T08:27:01.277Z,40.6
2023-02-07T08:29:04.841Z,41.3
2023-02-07T08:31:08.542Z,44.5
2023-02-07T08:33:14.777Z,43.5
2023-02-07T08:35:18.295Z,43.3
2023-02-07T08:37:21.862Z,43.1
2023-02-07T08:39:28.147Z,44.8
2023-02-07T08:41:31.700Z,43.2
2023-02-07T08:43:35.272Z,44.1
2023-02-07T08:45:41.684Z,44.9
2023-02-07T08:47:45.202Z,44.9
2023-02-07T08:49:48.716Z,42.9
2023-02-07T08:51:54.939Z,43.4
2023-02-07T08:53:58.525Z,47.5
2023-02-07T09:03:18.399Z,49.1
2023-02-07T09:05:21.921Z,47.2
2023-02-07T09:07:28.170Z,47.9
2023-02-07T09:09:31.759Z,46.7
2023-02-07T09:13:41.580Z,48.7
2023-02-07T09:15:45.197Z,50.6
2023-02-07T09:17:48.773Z,50.9
2023-02-07T09:19:55.096Z,47.8
2023-02-07T09:21:58.637Z,53.3
2023-02-07T09:24:02.239Z,55.8
2023-02-07T09:26:08.566Z,49.8
2023-02-07T09:28:12.165Z,49.8
2023-02-07T09:30:15.702Z,48.2
2023-02-07T09:32:21.952Z,48.1
2023-02-07T09:36:29.184Z,51
2023-02-07T09:40:39.448Z,50.9
2023-02-07T09:42:42.683Z,47.7
2023-02-07T09:44:49.154Z,50.7
2023-02-07T09:51:02.456Z,46.3
2023-02-07T09:53:06.056Z,48.3
2023-02-07T09:55:09.691Z,46.3
2023-02-07T09:57:15.987Z,46
2023-02-07T09:59:19.618Z,50.7
2023-02-07T10:01:23.283Z,45.7
2023-02-07T10:03:29.540Z,47.5
2023-02-07T10:05:33.190Z,49.7
2023-02-07T10:07:36.805Z,48.7
2023-02-07T10:09:43.088Z,47.2
2023-02-07T10:13:50.378Z,44.4
2023-02-07T10:15:56.734Z,47
2023-02-07T10:18:00.328Z,47.7
2023-02-07T10:20:03.938Z,44.6
2023-02-07T10:25:15.604Z,43
2023-02-07T10:27:19.246Z,43.7
2023-02-07T10:29:22.914Z,46.2
2023-02-07T10:31:29.386Z,43.1
2023-02-07T10:33:32.875Z,46.4
2023-02-07T10:44:53.896Z,50.1
2023-02-07T10:47:22.148Z,49.5
2023-02-07T10:49:26.103Z,51.6
2023-02-07T10:51:29.519Z,49.3
2023-02-07T10:53:42.972Z,47.4
2023-02-07T10:55:40.234Z,58.3
2023-02-07T10:57:50.933Z,41.7
2023-02-07T10:59:47.643Z,42
2023-02-07T11:01:51.344Z,44.8
2023-02-07T11:03:55.084Z,41.4
2023-02-07T11:05:58.809Z,42.5
2023-02-07T11:08:05.799Z,37.9
2023-02-07T11:12:13.255Z,34.4
2023-02-07T11:16:20.856Z,30.4
2023-02-07T11:20:28.224Z,24.2
2023-02-07T11:22:35.222Z,23.9
2023-02-07T11:24:38.776Z,24.7
2023-02-07T11:30:50.980Z,28.9
2023-02-07T11:32:54.675Z,25.2
2023-02-07T11:34:58.413Z,25.1
2023-02-07T11:37:05.456Z,25.5
2023-02-07T11:39:09.246Z,23.7
2023-02-07T11:41:13.007Z,26.3
2023-02-07T11:42:16.525Z,24.9
2023-02-07T11:44:20.310Z,25.6
2023-02-07T11:46:24.172Z,23
2023-02-07T11:48:27.831Z,26.6
2023-02-07T11:50:34.950Z,28.6
2023-02-07T11:52:38.646Z,26.1
2023-02-07T11:54:42.424Z,25.9
2023-02-07T11:56:46.192Z,24.9
2023-02-07T11:58:49.942Z,23.6
2023-02-07T12:00:53.736Z,24
2023-02-07T12:02:57.498Z,24.9
2023-02-07T12:07:08.301Z,24.2
2023-02-07T12:13:19.611Z,23
2023-02-07T12:15:23.365Z,24.9
2023-02-07T12:17:27.115Z,24.3
2023-02-07T12:19:34.171Z,23.2
2023-02-07T12:21:37.920Z,22.5
2023-02-07T12:23:43.254Z,23.6
2023-02-07T12:25:45.483Z,24.1
2023-02-07T12:27:49.289Z,23.7
2023-02-07T12:29:53.027Z,22.5
2023-02-07T12:36:07.629Z,22.3
2023-02-07T12:38:11.421Z,22.3
2023-02-07T12:41:18.715Z,23.5
2023-02-07T12:47:33.356Z,22.6
2023-02-07T12:49:37.143Z,23
2023-02-07T12:51:40.924Z,21.8
2023-02-07T12:55:48.533Z,21.5
2023-02-07T12:57:52.307Z,21.6
2023-02-07T12:59:56.087Z,20.2
2023-02-07T13:06:10.751Z,21.4
2023-02-07T13:10:18.343Z,21.7
2023-02-07T13:12:22.149Z,21.7
2023-02-07T13:20:40.642Z,19.9
2023-02-07T13:22:44.480Z,20.9
2023-02-07T13:24:48.268Z,20.9
2023-02-07T13:26:52.052Z,21
2023-02-07T13:28:55.865Z,21.2
2023-02-07T13:31:03.019Z,23.4
2023-02-07T13:33:06.888Z,20.6
2023-02-07T13:35:10.535Z,22.5
2023-02-07T13:38:17.874Z,21.7
2023-02-07T13:40:21.668Z,23.1
2023-02-07T13:42:25.470Z,23.9
2023-02-07T13:48:40.142Z,23.2
2023-02-07T13:50:43.964Z,23.6
2023-02-07T13:52:47.787Z,20.9
2023-02-07T13:54:51.527Z,24.1
2023-02-07T13:56:55.347Z,22.8
2023-02-07T13:59:02.640Z,24.4
2023-02-07T14:01:06.245Z,22.1
2023-02-07T14:03:10.049Z,23.6
2023-02-07T14:05:13.792Z,24.1
2023-02-07T14:07:17.612Z,22.8
2023-02-07T14:09:21.532Z,22.8
2023-02-07T14:11:25.202Z,24.6
2023-02-07T14:13:32.258Z,27
2023-02-07T14:15:36.091Z,22.9
2023-02-07T14:17:39.825Z,20.6
2023-02-07T14:19:43.642Z,23.1
2023-02-07T14:21:47.435Z,23
2023-02-07T14:23:51.203Z,21.6
2023-02-07T14:25:55.004Z,24.6
2023-02-07T14:28:02.140Z,24.3
2023-02-07T14:30:05.889Z,22.8
2023-02-07T14:32:09.664Z,23
2023-02-07T14:34:32.178Z,22.6
2023-02-07T14:36:35.976Z,22.7
2023-02-07T14:38:39.750Z,23.5
2023-02-07T14:40:48.440Z,22.8
2023-02-07T14:42:52.210Z,23
2023-02-07T14:44:55.996Z,21.4
2023-02-07T14:46:59.774Z,23.6
2023-02-07T14:49:03.542Z,22.8
2023-02-07T14:51:07.353Z,21.9
2023-02-07T14:53:11.127Z,23.2
2023-02-07T14:55:18.178Z,23.6
2023-02-07T14:57:21.967Z,23.5
2023-02-07T14:59:25.714Z,22.5
2023-02-07T15:01:29.558Z,24
2023-02-07T15:03:34.976Z,22.1
2023-02-07T15:05:37.072Z,24.3
2023-02-07T15:07:40.838Z,23.8
2023-02-07T15:09:47.872Z,24.8
2023-02-07T15:11:59.791Z,22.9
2023-02-07T15:15:59.223Z,22.7
2023-02-07T15:18:02.993Z,413.3
2023-02-07T15:24:17.571Z,23.3
2023-02-07T15:29:28.586Z,22.8
2023-02-07T15:31:32.583Z,24.3
2023-02-07T15:35:39.889Z,22.8
2023-02-07T15:37:47.167Z,24.2
2023-02-07T15:39:50.706Z,23.1
2023-02-07T15:41:54.474Z,23.6
2023-02-07T15:43:58.208Z,22.7
2023-02-07T15:50:09.501Z,414.6
2023-02-07T15:54:20.304Z,999.9
2023-02-07T15:58:27.811Z,999.9
2023-02-07T16:04:39.106Z,999.9
2023-02-07T16:06:46.150Z,999.9
2023-02-07T16:08:49.881Z,999.9
2023-02-07T16:12:57.382Z,999.9
2023-02-07T16:15:01.103Z,999.9
2023-02-07T16:17:04.929Z,999.9
2023-02-07T16:19:08.598Z,999.9
2023-02-07T16:25:23.092Z,999.9
2023-02-07T16:26:26.578Z,999.9
2023-02-07T16:28:30.345Z,999.9
2023-02-07T16:30:34.074Z,999.9
2023-02-07T16:32:37.809Z,999.9
2023-02-07T16:34:58.923Z,999.9
2023-02-07T16:36:48.549Z,999.9
2023-02-07T16:38:52.290Z,999.9
2023-02-07T16:40:56.010Z,999.9
2023-02-07T16:42:59.728Z,999.9
2023-02-07T16:45:03.485Z,999.9
2023-02-07T16:47:07.203Z,999.9
2023-02-07T16:49:14.173Z,999.9
2023-02-07T16:51:17.875Z,999.9
2023-02-07T16:53:21.619Z,999.9
2023-02-07T16:55:25.312Z,999.9
2023-02-07T16:57:29.042Z,999.9
2023-02-07T16:59:32.746Z,999.9
2023-02-07T17:01:36.438Z,999.9
2023-02-07T17:03:43.438Z,999.9
2023-02-07T17:05:47.103Z,999.9
2023-02-07T17:07:50.862Z,999.9
2023-02-07T17:09:54.499Z,999.9
2023-02-07T17:11:58.188Z,999.9
2023-02-07T17:22:19.910Z,999.9
2023-02-07T17:25:27.099Z,999.9
2023-02-07T17:27:30.747Z,999.9
2023-02-07T17:29:34.463Z,999.9
2023-02-07T17:33:45.104Z,999.9
2023-02-07T17:35:48.756Z,999.9
2023-02-07T17:37:52.410Z,999.9
2023-02-07T17:39:56.089Z,999.9
2023-02-07T17:41:59.768Z,999.9
2023-02-07T17:44:03.434Z,999.9
2023-02-07T17:46:10.425Z,999.9
2023-02-07T17:48:14.023Z,999.9
2023-02-07T17:50:17.698Z,999.9
2023-02-07T17:52:21.353Z,999.9
2023-02-07T17:54:25.008Z,999.9
2023-02-07T17:56:28.670Z,999.9
2023-02-07T17:58:32.317Z,999.9
2023-02-07T18:00:39.851Z,999.9
2023-02-07T18:02:43.034Z,999.9
2023-02-07T18:04:46.580Z,999.9
2023-02-07T18:06:50.264Z,999.9
2023-02-07T18:08:56.353Z,999.9
2023-02-07T18:10:57.548Z,999.9
2023-02-07T18:13:01.213Z,999.9
2023-02-07T18:15:08.133Z,999.9
2023-02-07T18:17:11.796Z,999.9
2023-02-07T18:19:15.456Z,999.9
2023-02-07T18:21:21.743Z,999.9
2023-02-07T18:25:29.032Z,999.9
2023-02-07T18:27:35.349Z,999.9
2023-02-07T18:29:39.016Z,999.9
2023-02-07T18:33:48.952Z,999.9
2023-02-07T18:37:56.215Z,999.9
2023-02-07T18:44:09.785Z,999.9
2023-02-07T18:48:19.687Z,999.9
2023-02-07T18:57:40.148Z,999.9
2023-02-07T18:59:43.755Z,999.9
2023-02-07T19:05:01.378Z,999.9
2023-02-07T19:07:06.522Z,999.9
2023-02-07T19:09:08.621Z,999.9
2023-02-07T19:11:14.825Z,808.4
2023-02-07T19:13:18.471Z,808.6
2023-02-07T19:15:22.063Z,808.8
2023-02-07T19:17:28.422Z,229.5
2023-02-07T19:19:31.939Z,231.1
2023-02-07T19:21:35.512Z,231.2
2023-02-07T19:23:41.779Z,231.1
2023-02-07T19:25:45.381Z,230.3
2023-02-07T19:27:49.081Z,37.2
2023-02-07T19:31:58.956Z,36.9
2023-02-07T19:34:02.403Z,34.6
2023-02-07T19:36:08.677Z,37
2023-02-07T19:42:22.110Z,32.6
2023-02-07T19:46:29.339Z,32.3
2023-02-07T19:50:39.356Z,32.3
2023-02-07T19:52:42.703Z,31.3
2023-02-07T19:54:48.954Z,35.1
2023-02-07T19:56:52.543Z,33.6
2023-02-07T19:58:56.127Z,34.7
2023-02-07T20:01:02.438Z,33.4
2023-02-07T20:03:05.987Z,33.7
2023-02-07T20:05:09.561Z,34.3
2023-02-07T20:07:15.813Z,34.6
2023-02-07T20:09:19.408Z,35.4
2023-02-07T20:11:23.000Z,34.3
2023-02-07T20:13:29.270Z,36.3
2023-02-07T20:15:32.854Z,34.4
2023-02-07T20:17:36.419Z,34
2023-02-07T20:19:42.644Z,37.5
2023-02-07T20:21:46.252Z,34.5
2023-02-07T20:23:49.930Z,34.1
2023-02-07T20:25:56.028Z,33.6
2023-02-07T20:27:59.626Z,35.4
2023-02-07T20:32:09.401Z,36.1
2023-02-07T20:34:12.983Z,39
2023-02-07T20:42:29.938Z,37.3
2023-02-07T20:46:39.754Z,40.1
2023-02-07T20:48:43.323Z,39.8
2023-02-07T20:50:49.534Z,37.9
2023-02-07T20:52:53.112Z,41
2023-02-07T20:54:56.657Z,48.6
2023-02-07T20:57:02.837Z,45.1
2023-02-07T20:59:06.456Z,40.1
2023-02-07T21:01:10.145Z,40.3
2023-02-07T21:05:19.878Z,39.6
2023-02-07T21:07:23.422Z,38.9
2023-02-07T21:15:49.835Z,43
2023-02-07T21:17:46.581Z,43.5
2023-02-07T21:19:50.152Z,42.5
2023-02-07T21:21:56.448Z,43.2
2023-02-07T21:24:00.129Z,44.9
2023-02-07T21:38:30.470Z,45.8
2023-02-07T21:40:36.694Z,45
2023-02-07T21:42:40.311Z,46.8
2023-02-07T21:44:43.894Z,45.5
2023-02-07T21:46:50.189Z,44.5
2023-02-07T21:48:53.770Z,41.7
2023-02-07T21:50:57.317Z,43
2023-02-07T21:55:07.187Z,42.8
2023-02-07T21:57:10.809Z,42.1
2023-02-07T22:01:20.587Z,42.1
2023-02-07T22:05:30.338Z,41.4
2023-02-07T22:13:47.238Z,40.1
2023-02-07T22:15:50.749Z,43.3
2023-02-07T22:17:56.972Z,39.3
2023-02-07T22:20:00.540Z,42.2
2023-02-07T22:22:04.048Z,41
2023-02-07T22:24:10.278Z,38.5
2023-02-07T22:26:13.786Z,42.1
2023-02-07T22:28:17.471Z,41.2
2023-02-07T22:30:23.668Z,41
2023-02-07T22:32:27.157Z,43.1
2023-02-07T22:34:30.828Z,41
2023-02-07T22:45:42.984Z,40.4
2023-02-07T22:49:52.781Z,41.9
2023-02-07T22:51:56.356Z,40.1
2023-02-07T22:53:59.951Z,39.4
2023-02-07T22:56:06.188Z,41.4
2023-02-07T22:58:09.759Z,39
2023-02-07T23:00:13.379Z,37.1
2023-02-07T23:02:19.653Z,38.5
2023-02-07T23:04:23.175Z,41.1
2023-02-07T23:10:36.451Z,39.2
2023-02-07T23:12:39.982Z,40.9
2023-02-07T23:14:46.245Z,40
2023-02-07T23:16:49.859Z,40
2023-02-07T23:18:53.476Z,43.2
2023-02-07T23:20:59.732Z,41.5
2023-02-07T23:23:03.357Z,39.7
2023-02-07T23:25:06.954Z,41.4
2023-02-07T23:32:26.494Z,40.1
2023-02-07T23:34:30.044Z,39.6
2023-02-07T23:38:39.708Z,37.5
2023-02-07T23:40:43.276Z,39.4
2023-02-07T23:42:49.472Z,44
2023-02-07T23:49:03.051Z,42.5
2023-02-07T23:53:09.958Z,42.5
2023-02-07T23:55:16.183Z,43.3
2023-02-07T23:57:19.769Z,41.8
